Time;durP1;ratioP1;P1;durP2;ratioP2;P2;SDS_P1;SDS_P2;PMS_P1;PMS_P2;Temp;Humidity;BMP_temperature;BMP_pressure;BME280_temperature;BME280_humidity;BME280_pressure;Samples;Min_cycle;Max_cycle;Signal;HPM_P1;HPM_P2
2023/05/20 00:00:52;;;;;;;7.90;3.22;;;;;;;11.30;100.00;102751.66;4866854;29;20053;-78
2023/05/20 00:03:20;;;;;;;9.13;3.22;;;;;;;11.28;100.00;102748.06;4905202;29;20072;-78
2023/05/20 00:05:48;;;;;;;11.82;3.70;;;;;;;11.27;100.00;102741.00;4850717;29;20423;-78
2023/05/20 00:08:18;;;;;;;7.95;3.47;;;;;;;11.26;100.00;102747.09;4869077;29;20538;-78
2023/05/20 00:10:47;;;;;;;9.80;4.63;;;;;;;11.24;100.00;102743.53;4836335;29;20049;-79
2023/05/20 00:13:14;;;;;;;9.40;3.55;;;;;;;11.25;100.00;102747.97;4851658;29;20068;-78
2023/05/20 00:15:42;;;;;;;6.93;3.20;;;;;;;11.25;100.00;102749.72;4874273;29;20052;-78
2023/05/20 00:18:09;;;;;;;10.77;4.60;;;;;;;11.24;100.00;102754.09;4851178;29;20056;-79
2023/05/20 00:20:37;;;;;;;10.30;4.03;;;;;;;11.22;100.00;102752.25;4880895;29;20409;-78
2023/05/20 00:23:05;;;;;;;7.95;3.88;;;;;;;11.21;100.00;102745.19;4865610;29;20108;-78
2023/05/20 00:25:32;;;;;;;11.18;3.72;;;;;;;11.20;100.00;102748.69;4876332;29;20111;-78
2023/05/20 00:28:00;;;;;;;11.75;4.22;;;;;;;11.18;100.00;102750.38;4835850;29;20056;-80
2023/05/20 00:30:27;;;;;;;7.20;3.13;;;;;;;11.17;100.00;102748.56;4857610;29;20048;-78
2023/05/20 00:32:55;;;;;;;8.30;3.17;;;;;;;11.16;100.00;102736.25;4872135;29;20053;-79
2023/05/20 00:35:23;;;;;;;8.30;3.35;;;;;;;11.16;100.00;102742.41;4873034;29;20060;-78
2023/05/20 00:37:51;;;;;;;6.70;3.90;;;;;;;11.14;100.00;102738.84;4864206;29;20049;-78
2023/05/20 00:40:20;;;;;;;10.38;3.80;;;;;;;11.14;100.00;102736.19;4847613;29;20048;-80
2023/05/20 00:42:48;;;;;;;8.10;3.92;;;;;;;11.14;100.00;102724.75;4813476;29;20056;-80
2023/05/20 00:45:16;;;;;;;7.03;3.50;;;;;;;11.11;100.00;102725.53;4857316;29;20490;-80
2023/05/20 00:47:43;;;;;;;13.45;3.88;;;;;;;11.10;100.00;102732.56;4883948;29;20044;-80
2023/05/20 00:50:10;;;;;;;11.98;3.83;;;;;;;11.09;100.00;102724.59;4871319;29;20040;-80
2023/05/20 00:52:40;;;;;;;8.23;4.00;;;;;;;11.09;100.00;102724.59;4860374;29;20049;-78
2023/05/20 00:55:08;;;;;;;6.82;3.78;;;;;;;11.08;100.00;102728.09;4859046;29;20041;-78
2023/05/20 00:57:35;;;;;;;7.70;3.67;;;;;;;11.06;100.00;102725.41;4845293;29;20071;-78
2023/05/20 01:00:04;;;;;;;9.88;4.13;;;;;;;11.04;100.00;102724.47;4848816;29;20048;-78
2023/05/20 01:02:32;;;;;;;6.35;3.35;;;;;;;11.04;100.00;102729.75;4852948;29;20495;-78
2023/05/20 01:04:59;;;;;;;6.00;3.45;;;;;;;11.02;100.00;102727.88;4890432;29;20049;-78
2023/05/20 01:07:27;;;;;;;9.15;3.13;;;;;;;11.01;100.00;102726.09;4878128;29;20058;-79
2023/05/20 01:09:55;;;;;;;8.98;4.03;;;;;;;10.98;100.00;102734.78;4848638;29;20059;-80
2023/05/20 01:12:29;;;;;;;7.72;4.00;;;;;;;10.97;100.00;102732.13;4837331;29;20082;-80
2023/05/20 01:15:11;;;;;;;8.35;4.00;;;;;;;10.93;100.00;102728.50;4864071;29;20049;-78
2023/05/20 01:17:51;;;;;;;8.85;3.83;;;;;;;10.90;100.00;102726.66;4861545;29;20057;-79
2023/05/20 01:20:23;;;;;;;6.63;3.97;;;;;;;10.87;100.00;102728.31;4869290;29;20053;-80
2023/05/20 01:22:55;;;;;;;15.02;4.18;;;;;;;10.84;100.00;102722.94;4891709;29;20055;-80
2023/05/20 01:25:23;;;;;;;8.70;4.00;;;;;;;10.82;100.00;102717.59;4851724;29;20041;-80
2023/05/20 01:27:53;;;;;;;8.85;3.65;;;;;;;10.81;100.00;102728.09;4857729;29;20048;-79
2023/05/20 01:30:28;;;;;;;8.48;4.13;;;;;;;10.77;100.00;102716.56;4866016;29;20053;-79
2023/05/20 01:33:03;;;;;;;6.53;3.80;;;;;;;10.75;100.00;102715.59;4855878;29;20041;-79
2023/05/20 01:35:32;;;;;;;10.70;4.10;;;;;;;10.73;100.00;102719.94;4864354;29;20044;-80
2023/05/20 01:38:03;;;;;;;5.60;3.77;;;;;;;10.72;100.00;102721.69;4879527;29;20052;-78
2023/05/20 01:40:32;;;;;;;7.32;3.90;;;;;;;10.69;100.00;102710.16;4863893;29;20049;-80
2023/05/20 01:43:02;;;;;;;7.68;3.58;;;;;;;10.67;100.00;102714.47;4829750;29;20056;-78
2023/05/20 01:45:30;;;;;;;7.35;3.78;;;;;;;10.66;100.00;102712.66;4852509;29;20416;-78
2023/05/20 01:48:00;;;;;;;6.68;3.42;;;;;;;10.64;100.00;102712.66;4831005;29;20053;-78
2023/05/20 01:50:28;;;;;;;6.97;3.47;;;;;;;10.62;100.00;102710.78;4875918;29;20053;-78
2023/05/20 01:52:58;;;;;;;8.43;3.95;;;;;;;10.61;100.00;102714.28;4845347;29;20465;-78
2023/05/20 01:55:26;;;;;;;6.15;4.10;;;;;;;10.60;100.00;102709.84;4852728;29;20050;-78
2023/05/20 01:57:54;;;;;;;6.93;3.58;;;;;;;10.59;100.00;102715.97;4857305;29;20060;-78
2023/05/20 02:00:21;;;;;;;8.35;3.80;;;;;;;10.58;100.00;102709.78;4802085;29;20427;-79
2023/05/20 02:02:49;;;;;;;8.55;3.88;;;;;;;10.58;100.00;102716.81;4863945;29;20044;-78
2023/05/20 02:05:16;;;;;;;10.15;4.03;;;;;;;10.58;100.00;102719.44;4856964;29;20049;-79
2023/05/20 02:07:44;;;;;;;7.45;3.35;;;;;;;10.53;100.00;102717.56;4850688;29;20067;-79
2023/05/20 02:10:12;;;;;;;8.48;3.55;;;;;;;10.52;100.00;102715.75;4834333;29;20053;-78
2023/05/20 02:12:40;;;;;;;6.20;3.65;;;;;;;10.50;100.00;102712.16;4841902;29;20060;-79
2023/05/20 02:15:07;;;;;;;6.47;3.67;;;;;;;10.49;100.00;102713.03;4836895;29;20546;-79
2023/05/20 02:17:36;;;;;;;7.22;3.33;;;;;;;10.49;100.00;102712.13;4878339;29;20053;-78
2023/05/20 02:20:06;;;;;;;6.80;3.58;;;;;;;10.49;100.00;102707.75;4847603;29;20045;-79
2023/05/20 02:22:34;;;;;;;6.85;3.45;;;;;;;10.49;100.00;102705.13;4862358;29;20052;-79
2023/05/20 02:25:03;;;;;;;3.72;2.78;;;;;;;10.48;100.00;102708.59;4860760;29;20044;-78
2023/05/20 02:27:31;;;;;;;9.57;3.15;;;;;;;10.48;100.00;102703.31;4850883;29;20049;-80
2023/05/20 02:29:59;;;;;;;4.35;3.20;;;;;;;10.49;100.00;102704.19;4807081;29;20053;-80
2023/05/20 02:32:27;;;;;;;7.50;3.55;;;;;;;10.49;100.00;102701.56;4859463;29;20061;-77
2023/05/20 02:34:55;;;;;;;6.22;3.08;;;;;;;10.50;100.00;102701.63;4850961;29;20525;-80
2023/05/20 02:37:22;;;;;;;6.25;3.25;;;;;;;10.49;100.00;102701.56;4875020;29;20068;-79
2023/05/20 02:39:50;;;;;;;4.53;2.40;;;;;;;10.49;100.00;102704.19;4876475;29;20055;-80
2023/05/20 02:42:17;;;;;;;2.58;2.20;;;;;;;10.49;100.00;102710.41;4849895;29;20053;-79
2023/05/20 02:44:45;;;;;;;5.57;3.45;;;;;;;10.49;100.00;102705.13;4848361;29;20044;-80
2023/05/20 02:47:13;;;;;;;4.55;2.72;;;;;;;10.50;100.00;102703.38;4841950;29;20064;-80
2023/05/20 02:49:40;;;;;;;6.93;2.78;;;;;;;10.50;100.00;102695.47;4855083;29;20068;-78
2023/05/20 02:52:09;;;;;;;6.13;2.65;;;;;;;10.49;100.00;102702.50;4866235;29;20045;-78
2023/05/20 02:54:37;;;;;;;3.92;2.15;;;;;;;10.51;100.00;102700.78;4837957;29;20067;-80
2023/05/20 02:57:04;;;;;;;4.03;2.13;;;;;;;10.53;100.00;102700.84;4871055;29;20062;-80
2023/05/20 02:59:32;;;;;;;6.53;2.50;;;;;;;10.56;100.00;102700.03;4867072;29;20052;-80
2023/05/20 03:01:59;;;;;;;7.45;3.13;;;;;;;10.58;100.00;102698.34;4842021;29;20049;-79
2023/05/20 03:04:27;;;;;;;8.75;2.30;;;;;;;10.61;100.00;102706.38;4852335;29;20068;-79
2023/05/20 03:06:56;;;;;;;4.25;2.20;;;;;;;10.64;100.00;102706.44;4855949;29;20052;-80
2023/05/20 03:09:24;;;;;;;11.65;2.15;;;;;;;10.66;100.00;102697.78;4887353;29;20053;-79
2023/05/20 03:11:51;;;;;;;2.63;1.88;;;;;;;10.72;100.00;102704.97;4859592;29;20063;-79
2023/05/20 03:14:19;;;;;;;4.15;1.90;;;;;;;10.76;100.00;102701.59;4849715;29;20051;-79
2023/05/20 03:16:46;;;;;;;5.30;2.38;;;;;;;10.80;100.00;102707.88;4814073;29;20052;-80
2023/05/20 03:19:15;;;;;;;4.30;1.85;;;;;;;10.84;100.00;102707.09;4849380;29;20050;-79
2023/05/20 03:21:42;;;;;;;2.95;1.75;;;;;;;10.85;100.00;102696.63;4873525;29;20055;-79
2023/05/20 03:24:10;;;;;;;4.38;1.80;;;;;;;10.89;100.00;102695.84;4861094;29;20072;-79
2023/05/20 03:26:42;;;;;;;2.22;1.90;;;;;;;10.91;100.00;102694.16;4859721;29;20071;-79
2023/05/20 03:29:09;;;;;;;3.38;1.90;;;;;;;10.93;100.00;102687.19;4867836;29;20698;-79
2023/05/20 03:31:37;;;;;;;2.38;1.95;;;;;;;10.96;100.00;102699.56;4876058;29;20063;-79
2023/05/20 03:34:04;;;;;;;3.38;1.83;;;;;;;10.97;100.00;102698.72;4828106;29;20064;-79
2023/05/20 03:36:32;;;;;;;2.40;1.50;;;;;;;10.99;100.00;102701.44;4869573;29;20060;-79
2023/05/20 03:39:00;;;;;;;4.80;1.80;;;;;;;11.00;100.00;102701.47;4861437;29;20060;-79
2023/05/20 03:41:31;;;;;;;2.67;1.60;;;;;;;11.01;100.00;102703.25;4868730;29;20053;-79
2023/05/20 03:43:58;;;;;;;2.08;1.65;;;;;;;11.00;100.00;102697.91;4871673;29;20071;-79
2023/05/20 03:46:26;;;;;;;3.40;1.63;;;;;;;11.02;100.00;102706.78;4849846;29;20040;-79
2023/05/20 03:48:54;;;;;;;2.30;1.55;;;;;;;11.01;100.00;102695.34;4823716;29;20063;-79
2023/05/20 03:51:21;;;;;;;3.40;1.60;;;;;;;11.00;100.00;102701.47;4834962;29;20065;-79
2023/05/20 03:53:50;;;;;;;1.75;1.48;;;;;;;11.00;100.00;102692.66;4843484;29;20060;-79
2023/05/20 03:56:18;;;;;;;3.42;2.20;;;;;;;11.00;100.00;102692.66;4869451;29;20049;-79
2023/05/20 03:58:46;;;;;;;4.03;1.63;;;;;;;11.01;100.00;102710.28;4842556;29;20064;-80
2023/05/20 04:01:14;;;;;;;2.30;1.60;;;;;;;11.00;100.00;102706.75;4845161;29;20064;-79
2023/05/20 04:03:42;;;;;;;4.30;1.65;;;;;;;11.01;100.00;102705.00;4830371;29;20091;-79
2023/05/20 04:06:10;;;;;;;1.92;1.60;;;;;;;11.00;100.00;102706.75;4855457;29;20053;-79
2023/05/20 04:08:37;;;;;;;2.50;1.77;;;;;;;11.01;100.00;102705.00;4868527;29;20669;-79
2023/05/20 04:11:05;;;;;;;3.38;1.40;;;;;;;11.03;100.00;102703.31;4837428;29;20053;-79
2023/05/20 04:13:33;;;;;;;3.05;1.40;;;;;;;11.12;100.00;102703.59;4855170;29;20049;-79
2023/05/20 04:16:04;;;;;;;4.22;1.40;;;;;;;11.33;100.00;102698.06;4863168;29;20041;-79
2023/05/20 04:18:31;;;;;;;2.92;1.45;;;;;;;11.48;100.00;102701.16;4832988;29;20063;-78
2023/05/20 04:21:00;;;;;;;3.25;1.42;;;;;;;11.74;100.00;102708.00;4855192;29;20049;-80
2023/05/20 04:23:31;;;;;;;2.88;1.42;;;;;;;11.92;100.00;102705.03;4851406;29;20049;-79
2023/05/20 04:26:01;;;;;;;2.22;1.10;;;;;;;12.10;100.00;102705.53;4872199;29;20410;-79
2023/05/20 04:28:30;;;;;;;2.65;1.33;;;;;;;12.52;100.00;102714.53;4849164;29;20060;-79
2023/05/20 04:31:05;;;;;;;2.38;1.30;;;;;;;13.06;100.00;102716.69;4878257;29;20056;-79
2023/05/20 04:33:38;;;;;;;2.67;1.17;;;;;;;13.61;100.00;102707.34;4814681;29;20084;-79
2023/05/20 04:36:10;;;;;;;1.50;1.20;;;;;;;14.09;100.00;102704.72;4874614;29;20055;-79
2023/05/20 04:38:41;;;;;;;1.67;1.10;;;;;;;14.65;100.00;102710.13;4849616;29;20452;-79
2023/05/20 04:41:08;;;;;;;2.72;1.63;;;;;;;15.21;100.00;102711.81;4854901;29;20053;-80
2023/05/20 04:43:37;;;;;;;1.95;1.58;;;;;;;15.60;100.00;102708.78;4855403;29;20068;-78
2023/05/20 04:46:05;;;;;;;1.63;1.33;;;;;;;16.09;100.00;102716.44;4855058;29;20052;-78
2023/05/20 04:48:33;;;;;;;1.77;1.27;;;;;;;16.48;100.00;102714.13;4837495;29;20057;-78
2023/05/20 04:51:02;;;;;;;2.38;1.08;;;;;;;16.96;100.00;102712.75;4835917;29;20048;-80
2023/05/20 04:53:32;;;;;;;2.42;1.10;;;;;;;17.26;100.00;102717.38;4857264;29;20080;-80
2023/05/20 04:56:00;;;;;;;2.08;1.05;;;;;;;17.53;99.59;102713.91;4853262;29;20068;-80
2023/05/20 04:58:30;;;;;;;3.83;1.40;;;;;;;17.84;97.98;102710.47;4852435;29;20083;-79
2023/05/20 05:00:58;;;;;;;4.20;1.23;;;;;;;18.15;94.54;102707.88;4864478;29;20266;-80
2023/05/20 05:03:26;;;;;;;1.98;1.48;;;;;;;18.48;91.25;102707.03;4839928;29;20057;-80
2023/05/20 05:05:57;;;;;;;1.33;1.10;;;;;;;18.54;87.02;102704.34;4818219;29;20072;-79
2023/05/20 05:08:25;;;;;;;1.92;1.13;;;;;;;18.79;88.18;102701.66;4850035;29;20399;-78
2023/05/20 05:10:53;;;;;;;3.40;1.50;;;;;;;19.18;86.32;102702.47;4871546;29;20057;-81
2023/05/20 05:13:21;;;;;;;4.35;0.93;;;;;;;19.41;83.65;102694.38;4857763;29;20059;-78
2023/05/20 05:16:00;;;;;;;3.28;1.10;;;;;;;19.12;77.02;102698.06;4867006;29;20059;-78
2023/05/20 05:18:29;;;;;;;1.30;1.13;;;;;;;19.01;80.58;102710.53;4847525;29;24594;-80
2023/05/20 05:21:04;;;;;;;4.05;1.02;;;;;;;18.84;76.77;102708.78;4831117;29;20047;-80
2023/05/20 05:23:33;;;;;;;5.50;0.90;;;;;;;19.05;80.71;102709.63;4849453;29;20060;-80
2023/05/20 05:26:01;;;;;;;2.70;1.42;;;;;;;19.36;77.47;102710.44;4854048;29;20053;-80
2023/05/20 05:28:29;;;;;;;1.20;0.98;;;;;;;19.48;74.51;102710.38;4867610;29;21310;-78
2023/05/20 05:30:58;;;;;;;3.38;1.58;;;;;;;19.56;74.52;102713.00;4857648;29;20061;-78
2023/05/20 05:33:25;;;;;;;1.58;0.90;;;;;;;19.62;72.47;102715.69;4869508;29;20063;-78
2023/05/20 05:35:57;;;;;;;1.60;0.95;;;;;;;19.53;70.00;102710.38;4819000;29;20049;-80
2023/05/20 05:38:25;;;;;;;4.10;1.08;;;;;;;19.60;70.63;102711.22;4876668;29;20048;-79
2023/05/20 05:40:52;;;;;;;4.07;1.05;;;;;;;19.48;69.66;102705.03;4859999;29;20107;-78
2023/05/20 05:43:20;;;;;;;2.30;1.30;;;;;;;19.69;69.53;102708.50;4849605;29;20064;-78
2023/05/20 05:45:48;;;;;;;2.58;1.08;;;;;;;19.64;67.46;102710.31;4871649;29;20060;-78
2023/05/20 05:48:16;;;;;;;1.30;1.20;;;;;;;19.42;66.53;102707.75;4842595;29;20052;-78
2023/05/20 05:50:44;;;;;;;2.30;1.40;;;;;;;19.25;67.18;102717.63;4809195;29;20542;-78
2023/05/20 05:53:14;;;;;;;0.90;0.90;;;;;;;19.23;66.33;102706.91;4851380;29;20049;-78
2023/05/20 05:55:47;;;;;;;2.08;1.10;;;;;;;19.33;66.63;102706.88;4855501;29;20118;-80
2023/05/20 05:58:15;;;;;;;3.15;0.93;;;;;;;19.30;65.51;102707.81;4855274;29;20045;-80
2023/05/20 06:00:43;;;;;;;1.95;1.00;;;;;;;19.16;65.24;102706.94;4846991;29;20502;-78
2023/05/20 06:03:11;;;;;;;1.55;1.30;;;;;;;18.89;64.76;102714.13;4824313;29;1369611;-78
2023/05/20 06:05:44;;;;;;;3.92;1.35;;;;;;;18.73;64.18;102699.88;4864345;29;20057;-78
2023/05/20 06:08:15;;;;;;;1.83;1.00;;;;;;;18.46;65.79;102716.81;4853575;29;20051;-78
2023/05/20 06:10:49;;;;;;;1.65;0.90;;;;;;;18.02;65.09;102705.22;4859831;29;20057;-79
2023/05/20 06:13:17;;;;;;;2.38;1.15;;;;;;;17.81;66.30;102703.34;4871921;29;20100;-79
2023/05/20 06:15:45;;;;;;;2.80;1.00;;;;;;;17.72;66.01;102706.00;4867075;29;20585;-78
2023/05/20 06:18:12;;;;;;;1.98;1.10;;;;;;;17.52;65.77;102698.84;4871970;29;20408;-79
2023/05/20 06:20:41;;;;;;;3.42;1.00;;;;;;;17.05;68.28;102722.56;4847193;29;20053;-80
2023/05/20 06:23:09;;;;;;;2.35;0.95;;;;;;;17.00;68.67;102717.22;4804583;29;20064;-78
2023/05/20 06:25:57;;;;;;;3.90;1.10;;;;;;;16.90;68.96;102718.00;4858974;29;20061;-77
2023/05/20 06:28:30;;;;;;;4.75;1.20;;;;;;;16.70;69.52;102731.16;4862754;29;20052;-78
2023/05/20 06:30:58;;;;;;;2.90;1.15;;;;;;;16.44;69.73;102721.19;4858130;29;20064;-80
2023/05/20 06:33:28;;;;;;;1.65;1.10;;;;;;;16.26;70.36;102708.63;4865172;29;20052;-80
2023/05/20 06:36:01;;;;;;;3.55;1.10;;;;;;;16.14;71.62;102706.75;4871073;29;20063;-80
2023/05/20 06:38:30;;;;;;;1.95;1.20;;;;;;;15.99;71.98;102709.22;4833859;29;20056;-79
2023/05/20 06:40:58;;;;;;;3.88;1.17;;;;;;;15.74;72.63;102724.03;4876601;29;20059;-78
2023/05/20 06:43:25;;;;;;;1.08;0.98;;;;;;;15.45;74.98;102711.25;4856341;29;20474;-78
2023/05/20 06:46:01;;;;;;;2.22;1.08;;;;;;;15.46;76.72;102702.41;4869134;29;20048;-78
2023/05/20 06:48:34;;;;;;;2.42;1.20;;;;;;;15.67;78.26;102712.41;4880477;29;20052;-79
2023/05/20 06:51:10;;;;;;;2.53;1.20;;;;;;;15.88;78.21;102703.81;4858174;29;20049;-78
2023/05/20 06:53:38;;;;;;;3.42;1.52;;;;;;;15.99;78.57;102711.88;4834326;29;23643;-78
2023/05/20 06:56:06;;;;;;;3.60;1.90;;;;;;;15.92;77.97;102702.97;4850984;29;20063;-80
2023/05/20 06:58:33;;;;;;;3.58;1.40;;;;;;;15.94;79.20;102706.53;4862929;29;20080;-80
2023/05/20 07:01:04;;;;;;;1.90;1.30;;;;;;;15.84;78.39;102694.03;4870483;29;20052;-80
2023/05/20 07:03:31;;;;;;;1.13;1.08;;;;;;;15.60;79.42;102703.47;4873717;29;20071;-80
2023/05/20 07:05:59;;;;;;;1.73;1.40;;;;;;;15.52;81.61;102693.59;4852194;29;20056;-78
2023/05/20 07:08:26;;;;;;;2.47;1.38;;;;;;;15.54;82.72;102698.09;4843710;29;20044;-76
2023/05/20 07:10:55;;;;;;;2.60;1.10;;;;;;;15.51;82.46;102689.19;4814088;29;20053;-78
2023/05/20 07:13:24;;;;;;;3.63;1.10;;;;;;;15.36;83.05;102698.75;4843264;29;20053;-78
2023/05/20 07:15:52;;;;;;;1.38;1.00;;;;;;;15.22;83.31;102692.38;4855850;29;20053;-78
2023/05/20 07:18:20;;;;;;;1.92;1.25;;;;;;;15.12;85.08;102685.13;4853982;29;20404;-78
2023/05/20 07:20:52;;;;;;;3.13;1.35;;;;;;;15.08;86.64;102686.84;4857100;29;20086;-78
2023/05/20 07:23:42;;;;;;;3.78;1.30;;;;;;;15.16;88.32;102684.31;4860041;29;20067;-79
2023/05/20 07:26:09;;;;;;;1.88;1.30;;;;;;;15.31;89.94;102680.94;4820093;29;20388;-79
2023/05/20 07:28:38;;;;;;;3.40;1.20;;;;;;;15.56;90.40;102677.75;4854297;29;20053;-78
2023/05/20 07:31:05;;;;;;;2.33;1.20;;;;;;;15.72;89.81;102678.78;4863183;29;20056;-78
2023/05/20 07:33:38;;;;;;;4.07;1.15;;;;;;;15.83;88.81;102676.28;4861616;29;20510;-78
2023/05/20 07:36:06;;;;;;;1.52;1.27;;;;;;;15.82;86.47;102673.63;4852533;29;20415;-78
2023/05/20 07:38:38;;;;;;;1.90;1.20;;;;;;;15.77;85.11;102676.25;4870481;29;20060;-79
2023/05/20 07:41:08;;;;;;;4.32;1.85;;;;;;;15.65;85.71;102674.31;4820799;29;20513;-78
2023/05/20 07:43:36;;;;;;;3.90;1.00;;;;;;;15.74;86.44;102666.44;4846440;29;20061;-78
2023/05/20 07:46:04;;;;;;;3.53;1.20;;;;;;;15.81;87.91;102659.44;4834755;29;20063;-78
2023/05/20 07:48:33;;;;;;;1.70;1.10;;;;;;;15.90;87.13;102663.97;4848883;29;20052;-78
2023/05/20 07:51:00;;;;;;;2.55;1.42;;;;;;;15.86;87.13;102667.44;4857775;29;20064;-78
2023/05/20 07:53:30;;;;;;;3.92;1.35;;;;;;;15.73;88.06;102659.34;4851789;29;20049;-78
2023/05/20 07:55:58;;;;;;;3.20;1.20;;;;;;;15.77;88.56;102660.28;4830772;29;20060;-78
2023/05/20 07:58:30;;;;;;;3.13;1.20;;;;;;;15.70;88.24;102661.06;4859667;29;20063;-79
2023/05/20 08:00:58;;;;;;;1.33;1.23;;;;;;;15.75;88.81;102654.94;4825832;29;20061;-79
2023/05/20 08:03:25;;;;;;;2.00;1.20;;;;;;;15.76;87.13;102662.06;4868366;29;20396;-78
2023/05/20 08:05:59;;;;;;;1.88;1.17;;;;;;;15.70;88.52;102659.28;4843394;29;20083;-78
2023/05/20 08:08:29;;;;;;;2.90;1.38;;;;;;;15.71;90.08;102668.16;4863893;29;20126;-78
2023/05/20 08:11:03;;;;;;;5.00;1.45;;;;;;;15.76;87.70;102658.50;4830744;29;20052;-78
2023/05/20 08:13:32;;;;;;;3.05;1.10;;;;;;;15.76;87.62;102654.09;4861874;29;20410;-78
2023/05/20 08:16:02;;;;;;;1.80;1.20;;;;;;;15.81;88.48;102661.22;4847234;29;20495;-78
2023/05/20 08:18:33;;;;;;;4.32;1.30;;;;;;;15.89;88.69;102659.50;4857861;29;20049;-78
2023/05/20 08:21:01;;;;;;;4.47;1.30;;;;;;;15.92;88.59;102644.47;4849327;29;20053;-78
2023/05/20 08:23:29;;;;;;;2.00;1.00;;;;;;;15.96;88.58;102651.59;4863784;29;20410;-78
2023/05/20 08:26:01;;;;;;;1.27;1.10;;;;;;;16.09;88.30;102651.75;4829301;29;20064;-79
2023/05/20 08:28:32;;;;;;;5.60;1.02;;;;;;;16.16;86.69;102656.22;4866353;29;20393;-78
2023/05/20 08:31:02;;;;;;;2.47;1.20;;;;;;;16.13;88.09;102642.91;4836539;29;20478;-78
2023/05/20 08:33:31;;;;;;;4.07;1.10;;;;;;;16.23;88.37;102639.44;4856144;29;20055;-79
2023/05/20 08:35:59;;;;;;;3.15;1.40;;;;;;;16.24;88.00;102640.31;4844792;29;20049;-78
2023/05/20 08:38:28;;;;;;;2.97;1.33;;;;;;;16.21;87.53;102630.56;4859448;29;20507;-79
2023/05/20 08:40:56;;;;;;;1.27;1.08;;;;;;;16.28;87.92;102640.38;4813596;29;20052;-79
2023/05/20 08:43:25;;;;;;;3.92;1.25;;;;;;;16.29;87.34;102636.81;4854212;29;20061;-78
2023/05/20 08:45:53;;;;;;;3.10;1.30;;;;;;;16.36;88.55;102638.66;4863702;29;20499;-78
2023/05/20 08:48:26;;;;;;;2.03;1.30;;;;;;;16.38;87.20;102633.34;4855783;29;20057;-77
2023/05/20 08:50:56;;;;;;;2.42;1.15;;;;;;;16.43;87.31;102628.06;4858087;29;20056;-77
2023/05/20 08:53:25;;;;;;;3.05;1.30;;;;;;;16.47;87.62;102625.44;4839885;29;20509;-77
2023/05/20 08:55:58;;;;;;;2.22;1.40;;;;;;;16.54;88.05;102629.91;4849113;29;20474;-77
2023/05/20 08:58:33;;;;;;;2.42;1.42;;;;;;;16.56;87.50;102621.97;4878475;29;20060;-77
2023/05/20 09:01:01;;;;;;;2.65;1.20;;;;;;;16.58;87.69;102617.53;4865596;29;20057;-78
2023/05/20 09:03:31;;;;;;;3.25;1.38;;;;;;;16.57;86.88;102613.94;4861708;29;20044;-77
2023/05/20 09:06:08;;;;;;;5.03;1.42;;;;;;;16.60;89.47;102614.84;4848590;29;20060;-77
2023/05/20 09:08:36;;;;;;;3.13;1.23;;;;;;;16.66;88.43;102610.47;4854993;29;20064;-77
2023/05/20 09:11:03;;;;;;;3.58;1.33;;;;;;;16.80;87.27;102614.97;4830781;29;26608;-77
2023/05/20 09:13:34;;;;;;;2.25;1.33;;;;;;;16.79;86.19;102613.22;4849154;29;20049;-77
2023/05/20 09:16:10;;;;;;;2.65;1.88;;;;;;;16.81;86.69;102612.34;4843089;29;20064;-77
2023/05/20 09:18:39;;;;;;;1.83;1.10;;;;;;;16.86;86.81;102604.38;4835552;29;20075;-77
2023/05/20 09:21:06;;;;;;;2.83;1.55;;;;;;;16.91;86.78;102602.66;4887696;29;20300;-77
2023/05/20 09:23:37;;;;;;;5.00;1.40;;;;;;;16.97;86.73;102607.13;4848859;29;20407;-77
2023/05/20 09:26:04;;;;;;;1.45;1.20;;;;;;;17.07;86.92;102609.84;4858602;29;20797;-77
2023/05/20 09:28:32;;;;;;;2.55;1.48;;;;;;;17.14;86.28;102613.41;4829683;29;20045;-77
2023/05/20 09:31:00;;;;;;;2.63;1.30;;;;;;;17.07;87.44;102604.50;4865865;29;20053;-78
2023/05/20 09:33:31;;;;;;;6.10;1.42;;;;;;;17.14;87.14;102600.06;4862140;29;20400;-77
2023/05/20 09:36:20;;;;;;;2.25;1.50;;;;;;;17.13;85.57;102593.88;4853073;29;20056;-80
2023/05/20 09:38:54;;;;;;;2.38;1.70;;;;;;;17.14;86.97;102585.00;4858646;29;20135;-80
2023/05/20 09:41:25;;;;;;;3.58;1.77;;;;;;;17.18;87.07;102599.19;4870076;29;20822;-81
2023/05/20 09:43:53;;;;;;;2.28;1.38;;;;;;;17.23;87.81;102585.91;4825045;29;20080;-79
2023/05/20 09:46:22;;;;;;;4.85;1.48;;;;;;;17.27;86.51;102579.72;4858167;29;20056;-78
2023/05/20 09:48:50;;;;;;;2.17;1.20;;;;;;;17.34;87.08;102584.19;4844613;29;20057;-78
2023/05/20 09:51:18;;;;;;;5.70;1.60;;;;;;;17.43;86.86;102583.28;4841362;29;20053;-77
2023/05/20 09:53:45;;;;;;;5.18;1.60;;;;;;;17.44;86.02;102580.63;4879520;29;20505;-78
2023/05/20 09:56:13;;;;;;;3.05;1.40;;;;;;;17.48;86.35;102581.53;4859111;29;20067;-78
2023/05/20 09:58:44;;;;;;;4.35;1.40;;;;;;;17.57;86.81;102578.00;4823249;29;21422;-79
2023/05/20 10:01:12;;;;;;;;;;;;;;;17.67;85.34;102582.44;4862252;29;20053;-78
2023/05/20 10:03:40;;;;;;;2.25;1.60;;;;;;;17.72;84.44;102572.69;4872979;29;19951;-77
2023/05/20 10:06:22;;;;;;;1.67;1.58;;;;;;;17.72;83.51;102572.69;4867680;29;20435;-78
2023/05/20 10:08:57;;;;;;;4.35;1.50;;;;;;;17.81;86.43;102564.69;4851304;29;20056;-78
2023/05/20 10:12:01;;;;;;;2.70;1.60;;;;;;;17.90;84.22;102564.75;4880766;29;20057;-78
2023/05/20 10:15:07;;;;;;;3.17;1.58;;;;;;;17.98;83.17;102555.84;4836013;29;20072;-80
2023/05/20 10:18:03;;;;;;;4.68;1.67;;;;;;;18.01;82.31;102553.16;4843657;29;20064;-81
2023/05/20 10:20:30;;;;;;;3.15;1.40;;;;;;;18.00;84.99;102540.72;4834968;29;20069;-81
2023/05/20 10:22:58;;;;;;;2.33;1.52;;;;;;;18.11;86.57;102547.81;4847284;29;20064;-79
2023/05/20 10:25:27;;;;;;;6.78;1.77;;;;;;;18.18;86.72;102542.47;4865157;29;20426;-80
2023/05/20 10:28:13;;;;;;;5.15;1.88;;;;;;;18.19;85.79;102541.59;4867833;29;20056;-79
2023/05/20 10:30:49;;;;;;;7.85;1.73;;;;;;;18.20;86.28;102538.91;4830098;29;20057;-79
2023/05/20 10:33:18;;;;;;;2.05;1.48;;;;;;;18.28;86.81;102528.25;4846186;29;20067;-79
2023/05/20 10:35:52;;;;;;;2.22;1.60;;;;;;;18.37;86.07;102529.97;4874900;29;20426;-79
2023/05/20 10:38:20;;;;;;;3.88;1.45;;;;;;;18.50;88.13;102527.25;4861759;29;20053;-79
2023/05/20 10:40:47;;;;;;;3.67;1.48;;;;;;;18.62;84.67;102522.78;4858135;29;20079;-80
2023/05/20 10:43:35;;;;;;;3.80;2.25;;;;;;;18.68;85.05;102520.97;4857414;29;20053;-80
2023/05/20 10:46:02;;;;;;;4.13;1.67;;;;;;;18.68;84.11;102512.97;4825765;29;20053;-79
2023/05/20 10:48:41;;;;;;;3.35;1.75;;;;;;;18.69;82.95;102514.78;4846284;29;20056;-85
2023/05/20 10:51:13;;;;;;;1.80;1.70;;;;;;;18.76;85.04;102517.41;4848559;29;20049;-79
2023/05/20 10:53:45;;;;;;;3.20;1.50;;;;;;;18.89;84.55;102505.78;4843079;29;20462;-79
2023/05/20 10:56:20;;;;;;;5.43;1.83;;;;;;;18.93;83.34;102502.22;4856532;29;20069;-79
2023/05/20 10:58:49;;;;;;;3.58;1.83;;;;;;;18.89;82.07;102505.78;4849631;29;20041;-79
2023/05/20 11:01:18;;;;;;;5.28;1.73;;;;;;;18.66;85.01;102503.22;4884121;29;20052;-79
2023/05/20 11:03:48;;;;;;;5.43;2.08;;;;;;;18.47;88.37;102494.38;4881365;29;20053;-79
2023/05/20 11:06:17;;;;;;;2.55;1.80;;;;;;;18.36;89.33;102509.53;4860259;29;20057;-78
2023/05/20 11:08:45;;;;;;;5.38;1.90;;;;;;;18.29;91.19;102504.19;4866665;29;20060;-79
2023/05/20 11:11:14;;;;;;;7.25;1.90;;;;;;;18.45;92.92;102499.72;4862865;29;20041;-79
2023/05/20 11:13:41;;;;;;;3.35;1.92;;;;;;;18.62;92.40;102494.31;4846677;29;20053;-79
2023/05/20 11:16:09;;;;;;;4.88;2.20;;;;;;;18.70;93.21;102492.50;4887771;29;20052;-77
2023/05/20 11:18:36;;;;;;;6.82;2.63;;;;;;;18.75;93.00;102480.91;4847828;29;20053;-78
2023/05/20 11:21:04;;;;;;;4.43;2.58;;;;;;;18.67;92.67;102484.47;4871180;29;20052;-77
2023/05/20 11:23:31;;;;;;;5.80;2.35;;;;;;;18.55;92.73;102484.56;4866924;29;20057;-77
2023/05/20 11:25:59;;;;;;;2.15;1.75;;;;;;;18.34;94.13;102479.31;4897356;29;20052;-77
2023/05/20 11:28:26;;;;;;;5.15;2.30;;;;;;;18.28;95.28;102482.88;4817035;29;20053;-77
2023/05/20 11:30:54;;;;;;;4.35;2.10;;;;;;;18.24;96.82;102482.00;4867902;29;20089;-77
2023/05/20 11:33:25;;;;;;;6.20;2.47;;;;;;;18.09;97.57;102482.00;4847757;29;20076;-80